createdAt,value
2019-04-22T00:00:57.319Z,4.20
2019-04-22T00:03:36.028Z,4.50
2019-04-22T00:06:19.512Z,3.77
2019-04-22T00:08:50.681Z,4.40
2019-04-22T00:11:26.017Z,4.33
2019-04-22T00:13:51.969Z,4.40
2019-04-22T00:16:27.444Z,4.35
2019-04-22T00:21:25.820Z,4.07
2019-04-22T00:23:51.757Z,3.90
2019-04-22T00:26:23.979Z,4.37
2019-04-22T00:29:07.771Z,4.27
2019-04-22T00:31:28.155Z,4.35
2019-04-22T00:33:59.925Z,4.37
2019-04-22T00:36:28.838Z,4.30
2019-04-22T00:39:07.501Z,4.30
2019-04-22T00:41:35.834Z,4.00
2019-04-22T00:44:02.601Z,4.27
2019-04-22T00:46:31.523Z,4.72
2019-04-22T00:49:35.580Z,4.20
2019-04-22T00:51:42.239Z,4.37
2019-04-22T00:54:03.505Z,4.40
2019-04-22T00:56:35.915Z,4.08
2019-04-22T00:58:59.022Z,4.30
2019-04-22T01:01:31.917Z,3.80
2019-04-22T01:06:36.921Z,4.30
2019-04-22T01:09:04.356Z,3.20
2019-04-22T01:11:37.552Z,4.20
2019-04-22T01:14:01.406Z,4.37
2019-04-22T01:16:37.165Z,3.90
2019-04-22T01:19:07.188Z,4.03
2019-04-22T01:24:05.857Z,4.37
2019-04-22T01:26:29.014Z,4.17
2019-04-22T01:29:00.979Z,3.85
2019-04-22T01:31:22.060Z,4.08
2019-04-22T01:34:02.996Z,4.00
2019-04-22T01:36:35.319Z,4.53
2019-04-22T01:39:10.715Z,2.87
2019-04-22T01:44:21.600Z,4.00
2019-04-22T01:49:14.677Z,3.98
2019-04-22T01:54:26.961Z,4.97
2019-04-22T01:56:46.931Z,4.03
2019-04-22T01:59:12.631Z,3.77
2019-04-22T02:01:52.944Z,4.08
2019-04-22T02:04:30.398Z,4.30
2019-04-22T02:06:48.621Z,4.17
2019-04-22T02:09:22.560Z,3.85
2019-04-22T02:11:56.930Z,3.92
2019-04-22T02:14:20.352Z,4.17
2019-04-22T02:19:22.773Z,4.37
2019-04-22T02:21:48.534Z,3.50
2019-04-22T02:24:30.164Z,4.10
2019-04-22T02:26:48.218Z,3.27
2019-04-22T02:29:27.182Z,2.85
2019-04-22T02:31:58.970Z,3.77
2019-04-22T02:37:17.063Z,4.35
2019-04-22T02:39:23.685Z,4.08
2019-04-22T02:41:54.946Z,4.17
2019-04-22T02:44:30.354Z,4.30
2019-04-22T02:51:52.334Z,3.80
2019-04-22T02:54:39.230Z,3.90
2019-04-22T02:56:53.043Z,4.50
2019-04-22T03:04:35.598Z,3.98
2019-04-22T03:06:49.553Z,4.15
2019-04-22T03:16:57.792Z,4.15
2019-04-22T03:19:44.732Z,4.30
2019-04-22T03:22:00.420Z,4.33
2019-04-22T03:37:52.873Z,4.08
2019-04-22T03:42:48.506Z,3.92
2019-04-22T03:45:24.052Z,2.98
2019-04-22T03:47:41.474Z,4.40
2019-04-22T03:50:17.372Z,4.15
2019-04-22T03:52:35.124Z,3.98
2019-04-22T03:55:09.280Z,4.22
2019-04-22T04:00:19.874Z,3.92
2019-04-22T04:05:16.601Z,3.67
2019-04-22T04:07:47.536Z,4.20
2019-04-22T04:10:20.034Z,4.53
2019-04-22T04:12:51.129Z,3.95
2019-04-22T04:17:44.461Z,3.72
2019-04-22T04:20:24.204Z,3.70
2019-04-22T04:25:29.438Z,2.50
2019-04-22T04:28:10.622Z,4.35
2019-04-22T04:32:52.411Z,3.50
2019-04-22T04:35:28.048Z,2.97
2019-04-22T04:37:55.769Z,3.70
2019-04-22T04:40:21.310Z,4.20
2019-04-22T04:42:52.421Z,4.10
2019-04-22T04:45:40.021Z,3.92
2019-04-22T04:50:11.928Z,3.92
2019-04-22T04:53:02.605Z,4.00
2019-04-22T04:56:33.921Z,3.90
2019-04-22T04:57:57.699Z,3.80
2019-04-22T05:05:16.707Z,3.97
2019-04-22T05:15:20.477Z,3.77
2019-04-22T05:20:21.919Z,4.20
2019-04-22T05:27:49.107Z,3.77
2019-04-22T05:32:46.178Z,4.25
2019-04-22T05:35:14.570Z,4.30
2019-04-22T05:37:54.698Z,4.22
2019-04-22T05:40:20.254Z,3.77
2019-04-22T05:42:46.383Z,4.35
2019-04-22T05:45:17.359Z,4.12
2019-04-22T05:47:50.908Z,2.95
2019-04-22T05:50:13.033Z,4.33
2019-04-22T05:52:57.310Z,4.22
2019-04-22T05:55:30.323Z,4.50
2019-04-22T05:57:59.661Z,3.97
2019-04-22T06:03:06.991Z,3.37
2019-04-22T06:05:31.920Z,4.33
2019-04-22T06:10:39.535Z,4.45
2019-04-22T06:13:03.005Z,4.08
2019-04-22T06:15:36.329Z,4.30
2019-04-22T06:18:20.478Z,4.58
2019-04-22T06:20:45.525Z,4.37
2019-04-22T06:26:03.982Z,4.35
2019-04-22T06:28:26.706Z,4.37
2019-04-22T06:30:49.885Z,4.80
2019-04-22T06:33:14.992Z,4.83
2019-04-22T06:38:33.996Z,3.33
2019-04-22T06:40:52.090Z,3.47
2019-04-22T06:43:16.347Z,5.10
2019-04-22T06:45:43.550Z,4.92
2019-04-22T06:48:19.507Z,4.70
2019-04-22T06:50:51.030Z,4.92
2019-04-22T06:53:16.983Z,5.45
2019-04-22T06:55:48.150Z,4.93
2019-04-22T06:58:15.390Z,5.22
2019-04-22T07:00:44.463Z,5.42
2019-04-22T07:03:34.721Z,5.37
2019-04-22T07:05:49.511Z,5.80
2019-04-22T07:08:45.701Z,5.53
2019-04-22T07:13:23.287Z,5.90
2019-04-22T07:18:28.696Z,5.87
2019-04-22T07:20:51.214Z,5.17
2019-04-22T07:23:27.123Z,5.47
2019-04-22T07:25:56.574Z,5.60
2019-04-22T07:28:21.683Z,5.85
2019-04-22T07:30:54.525Z,5.65
2019-04-22T07:33:28.130Z,6.08
2019-04-22T07:36:12.617Z,5.47
2019-04-22T07:38:26.865Z,5.03
2019-04-22T07:40:50.566Z,5.73
2019-04-22T07:43:32.172Z,5.30
2019-04-22T07:45:54.868Z,5.57
2019-04-22T07:48:33.951Z,4.08
2019-04-22T07:51:04.838Z,5.37
2019-04-22T07:53:26.202Z,4.62
2019-04-22T07:55:55.461Z,4.95
2019-04-22T07:58:25.769Z,4.47
2019-04-22T08:01:03.988Z,4.67
2019-04-22T08:03:53.381Z,4.50
2019-04-22T08:06:08.729Z,4.67
2019-04-22T08:13:31.050Z,4.50
2019-04-22T08:15:58.797Z,5.12
2019-04-22T08:20:58.666Z,5.15
2019-04-22T08:23:30.337Z,4.83
2019-04-22T08:26:14.768Z,5.13
2019-04-22T08:28:34.534Z,4.90
2019-04-22T08:31:02.130Z,5.03
2019-04-22T08:33:46.509Z,4.60
2019-04-22T08:36:13.613Z,4.80
2019-04-22T08:38:35.432Z,4.13
2019-04-22T08:46:23.423Z,4.85
2019-04-22T08:48:51.514Z,3.92
2019-04-22T08:51:21.067Z,5.65
2019-04-22T08:53:57.343Z,4.45
2019-04-22T08:56:29.904Z,4.05
2019-04-22T08:58:59.943Z,4.47
2019-04-22T09:01:22.816Z,4.37
2019-04-22T09:03:56.930Z,4.47
2019-04-22T09:06:36.834Z,4.10
2019-04-22T09:08:55.593Z,4.20
2019-04-22T09:11:33.810Z,3.55
2019-04-22T09:13:55.782Z,4.63
2019-04-22T09:16:26.504Z,4.27
2019-04-22T09:18:56.065Z,4.55
2019-04-22T09:21:27.645Z,4.35
2019-04-22T09:23:58.678Z,4.15
2019-04-22T09:26:34.708Z,5.05
2019-04-22T09:28:59.367Z,4.45
2019-04-22T09:31:23.879Z,4.90
2019-04-22T09:33:53.264Z,4.50
2019-04-22T09:36:29.687Z,4.20
2019-04-22T09:39:09.311Z,4.42
2019-04-22T09:41:27.143Z,4.50
2019-04-22T09:43:56.953Z,4.28
2019-04-22T09:46:32.857Z,4.12
2019-04-22T09:51:29.168Z,4.28
2019-04-22T09:56:32.152Z,4.35
2019-04-22T09:58:58.518Z,4.53
2019-04-22T10:01:47.366Z,4.50
2019-04-22T10:04:00.870Z,3.70
2019-04-22T10:11:35.049Z,4.17
2019-04-22T10:16:37.189Z,4.33
2019-04-22T10:19:04.251Z,4.05
2019-04-22T10:21:40.604Z,3.90
2019-04-22T10:24:03.336Z,3.75
2019-04-22T10:26:39.460Z,4.00
2019-04-22T10:29:13.471Z,4.00
2019-04-22T10:31:44.777Z,3.58
2019-04-22T10:33:56.076Z,4.03
2019-04-22T10:36:15.172Z,3.60
2019-04-22T10:38:46.604Z,3.95
2019-04-22T10:41:16.569Z,3.67
2019-04-22T10:43:45.431Z,3.97
2019-04-22T10:46:14.098Z,3.35
2019-04-22T10:48:44.155Z,3.70
2019-04-22T10:51:12.913Z,3.60
2019-04-22T10:53:41.761Z,3.42
2019-04-22T10:56:12.676Z,3.92
2019-04-22T10:58:42.610Z,3.40
2019-04-22T11:01:11.538Z,3.58
2019-04-22T11:03:41.514Z,3.75
2019-04-22T11:06:11.577Z,3.97
2019-04-22T11:08:46.698Z,3.42
2019-04-22T11:11:29.316Z,3.52
2019-04-22T11:13:44.133Z,4.20
2019-04-22T11:18:43.430Z,3.33
2019-04-22T11:21:13.676Z,3.60
2019-04-22T11:23:42.727Z,4.17
2019-04-22T11:26:12.112Z,3.55
2019-04-22T11:28:41.422Z,3.60
2019-04-22T11:31:10.475Z,3.95
2019-04-22T11:33:40.300Z,3.52
2019-04-22T11:36:10.128Z,3.90
2019-04-22T11:38:48.668Z,3.95
2019-04-22T11:41:09.368Z,3.47
2019-04-22T11:43:38.968Z,3.52
2019-04-22T11:46:09.245Z,2.92
2019-04-22T11:48:38.153Z,3.55
2019-04-22T11:51:07.012Z,3.30
2019-04-22T11:53:36.606Z,3.60
2019-04-22T11:56:06.761Z,3.40
2019-04-22T11:58:37.023Z,3.27
2019-04-22T12:01:06.670Z,3.40
2019-04-22T12:03:35.805Z,3.70
2019-04-22T12:06:05.932Z,3.50
2019-04-22T12:08:35.726Z,3.33
2019-04-22T12:11:06.027Z,3.42
2019-04-22T12:13:35.801Z,3.30
2019-04-22T12:16:05.295Z,3.62
2019-04-22T12:18:35.312Z,3.17
2019-04-22T12:21:05.303Z,3.33
2019-04-22T12:23:34.944Z,3.02
2019-04-22T12:26:09.241Z,3.50
2019-04-22T12:28:35.126Z,3.47
2019-04-22T12:31:03.904Z,3.52
2019-04-22T12:33:32.532Z,3.50
2019-04-22T12:36:02.363Z,3.35
2019-04-22T12:38:31.472Z,3.20
2019-04-22T12:41:04.270Z,3.55
2019-04-22T12:43:31.835Z,3.70
2019-04-22T12:46:00.680Z,3.12
2019-04-22T12:48:29.196Z,3.22
2019-04-22T12:50:58.488Z,3.47
2019-04-22T12:53:28.065Z,3.17
2019-04-22T12:55:57.428Z,3.65
2019-04-22T12:58:27.687Z,3.58
2019-04-22T13:00:57.044Z,2.80
2019-04-22T13:03:26.407Z,3.17
2019-04-22T13:05:55.943Z,3.08
2019-04-22T13:08:25.479Z,3.40
2019-04-22T13:11:01.995Z,3.50
2019-04-22T13:13:25.112Z,3.42
2019-04-22T13:15:54.976Z,3.02
2019-04-22T13:18:33.327Z,3.40
2019-04-22T13:20:54.725Z,3.17
2019-04-22T13:23:23.587Z,3.20
2019-04-22T13:25:52.647Z,3.12
2019-04-22T13:28:21.247Z,3.30
2019-04-22T13:30:50.618Z,3.15
2019-04-22T13:33:19.313Z,3.15
2019-04-22T13:35:48.172Z,3.58
2019-04-22T13:38:17.359Z,3.60
2019-04-22T13:41:00.682Z,3.25
2019-04-22T13:43:16.826Z,3.10
2019-04-22T13:45:45.778Z,3.00
2019-04-22T13:48:33.263Z,3.00
2019-04-22T13:51:15.126Z,3.40
2019-04-22T13:56:07.666Z,3.60
2019-04-22T13:58:32.117Z,3.17
2019-04-22T14:00:46.818Z,3.55
2019-04-22T14:03:35.648Z,2.98
2019-04-22T14:06:06.752Z,2.83
2019-04-22T14:08:35.393Z,2.77
2019-04-22T14:11:18.288Z,2.85
2019-04-22T14:13:34.313Z,2.92
2019-04-22T14:16:03.041Z,3.10
2019-04-22T14:18:32.756Z,2.47
2019-04-22T14:21:02.823Z,2.50
2019-04-22T14:23:32.993Z,3.15
2019-04-22T14:26:01.723Z,2.72
2019-04-22T14:28:31.312Z,2.70
2019-04-22T14:31:02.208Z,2.60
2019-04-22T14:33:32.067Z,2.90
2019-04-22T14:36:00.741Z,2.87
2019-04-22T14:38:30.274Z,2.72
2019-04-22T14:41:00.598Z,2.58
2019-04-22T14:44:00.156Z,2.75
2019-04-22T14:46:40.690Z,2.55
2019-04-22T14:48:49.395Z,2.87
2019-04-22T14:51:16.131Z,2.50
2019-04-22T14:53:47.260Z,2.83
2019-04-22T14:56:02.163Z,2.65
2019-04-22T14:58:31.215Z,2.58
2019-04-22T15:01:01.248Z,2.72
2019-04-22T15:03:31.377Z,2.70
2019-04-22T15:06:00.148Z,2.70
2019-04-22T15:08:28.976Z,2.85
2019-04-22T15:10:58.235Z,2.80
2019-04-22T15:13:27.388Z,2.45
2019-04-22T15:16:02.982Z,2.30
2019-04-22T15:18:47.580Z,2.50
2019-04-22T15:21:20.770Z,2.52
2019-04-22T15:23:50.758Z,3.02
2019-04-22T15:26:20.357Z,3.02
2019-04-22T15:28:49.407Z,2.50
2019-04-22T15:31:19.365Z,2.40
2019-04-22T15:33:50.201Z,2.63
2019-04-22T15:36:18.288Z,2.40
2019-04-22T15:38:47.163Z,2.40
2019-04-22T15:41:16.647Z,2.50
2019-04-22T15:43:45.744Z,2.62
2019-04-22T15:46:15.810Z,2.40
2019-04-22T15:48:46.207Z,2.62
2019-04-22T15:51:16.321Z,2.65
2019-04-22T15:53:45.448Z,2.65
2019-04-22T15:56:14.724Z,3.00
2019-04-22T15:58:43.879Z,2.62
2019-04-22T16:01:21.395Z,2.50
2019-04-22T16:03:43.035Z,2.40
2019-04-22T16:06:12.221Z,2.62
2019-04-22T16:08:41.176Z,2.70
2019-04-22T16:11:10.025Z,2.20
2019-04-22T16:13:40.022Z,2.20
2019-04-22T16:16:10.237Z,2.33
2019-04-22T16:18:40.132Z,3.02
2019-04-22T16:21:09.086Z,2.77
2019-04-22T16:23:54.573Z,2.65
2019-04-22T16:26:40.266Z,2.50
2019-04-22T16:29:11.646Z,2.30
2019-04-22T16:31:40.181Z,2.20
2019-04-22T16:34:09.466Z,2.35
2019-04-22T16:36:38.804Z,2.30
2019-04-22T16:39:11.000Z,2.33
2019-04-22T16:41:40.381Z,2.47
2019-04-22T16:44:09.139Z,2.20
2019-04-22T16:46:37.719Z,2.65
2019-04-22T16:49:07.553Z,2.27
2019-04-22T16:51:36.396Z,2.43
2019-04-22T16:54:06.463Z,2.58
2019-04-22T16:56:37.104Z,2.40
2019-04-22T16:59:06.661Z,2.27
2019-04-22T17:01:38.683Z,2.20
2019-04-22T17:04:10.402Z,2.30
2019-04-22T17:06:41.498Z,2.47
2019-04-22T17:09:10.930Z,2.47
2019-04-22T17:11:40.212Z,2.30
2019-04-22T17:14:08.796Z,2.30
2019-04-22T17:16:38.750Z,2.50
2019-04-22T17:19:09.043Z,2.30
2019-04-22T17:21:37.718Z,2.40
2019-04-22T17:24:07.752Z,2.30
2019-04-22T17:26:38.942Z,2.12
2019-04-22T17:29:08.426Z,2.40
2019-04-22T17:31:42.072Z,2.35
2019-04-22T17:34:07.710Z,2.62
2019-04-22T17:36:38.305Z,2.87
2019-04-22T17:39:24.758Z,2.70
2019-04-22T17:41:59.049Z,2.42
2019-04-22T17:44:40.086Z,2.60
2019-04-22T17:47:06.445Z,2.33
2019-04-22T17:49:51.032Z,2.12
2019-04-22T17:52:21.589Z,2.35
2019-04-22T17:57:21.611Z,2.58
2019-04-22T17:59:51.937Z,2.33
2019-04-22T18:02:15.348Z,2.20
2019-04-22T18:04:40.104Z,2.15
2019-04-22T18:07:31.190Z,2.60
2019-04-22T18:10:22.284Z,2.75
2019-04-22T18:12:34.320Z,2.40
2019-04-22T18:15:10.065Z,2.20
2019-04-22T18:17:32.168Z,2.20
2019-04-22T18:19:54.576Z,2.40
2019-04-22T18:22:19.797Z,2.40
2019-04-22T18:24:55.740Z,2.42
2019-04-22T18:27:42.987Z,2.50
2019-04-22T18:29:51.978Z,2.50
2019-04-22T18:32:18.124Z,2.83
2019-04-22T18:34:51.931Z,2.58
2019-04-22T18:37:23.749Z,2.77
2019-04-22T18:39:58.037Z,2.30
2019-04-22T18:42:23.879Z,3.08
2019-04-22T18:45:21.653Z,2.33
2019-04-22T18:47:26.752Z,2.50
2019-04-22T18:49:56.556Z,2.72
2019-04-22T18:52:47.948Z,2.70
2019-04-22T18:55:17.903Z,2.60
2019-04-22T18:58:03.006Z,2.70
2019-04-22T19:00:23.486Z,2.52
2019-04-22T19:02:58.972Z,2.40
2019-04-22T19:05:42.711Z,2.50
2019-04-22T19:15:54.309Z,2.92
2019-04-22T19:18:25.724Z,2.55
2019-04-22T19:20:59.581Z,2.60
2019-04-22T19:23:22.674Z,2.62
2019-04-22T19:25:47.438Z,2.70
2019-04-22T19:28:31.227Z,2.90
2019-04-22T19:31:05.527Z,3.00
2019-04-22T19:33:28.872Z,2.67
2019-04-22T19:35:59.674Z,2.80
2019-04-22T19:38:16.398Z,3.05
2019-04-22T19:43:28.611Z,3.02
2019-04-22T19:45:58.919Z,2.87
2019-04-22T19:48:39.272Z,2.90
2019-04-22T19:51:05.894Z,2.92
2019-04-22T19:53:35.064Z,2.83
2019-04-22T19:55:53.829Z,2.90
2019-04-22T19:58:25.845Z,3.17
2019-04-22T20:01:02.536Z,2.83
2019-04-22T20:03:48.225Z,2.80
2019-04-22T20:06:26.846Z,2.62
2019-04-22T20:09:02.458Z,2.67
2019-04-22T20:11:29.923Z,2.92
2019-04-22T20:14:02.561Z,3.05
2019-04-22T20:16:27.371Z,2.95
2019-04-22T20:19:04.801Z,3.10
2019-04-22T20:21:37.231Z,3.35
2019-04-22T20:23:53.737Z,2.60
2019-04-22T20:26:31.714Z,2.90
2019-04-22T20:29:05.126Z,2.92
2019-04-22T20:34:13.012Z,2.67
2019-04-22T20:36:52.383Z,2.58
2019-04-22T20:39:03.520Z,2.92
2019-04-22T20:41:30.948Z,2.98
2019-04-22T20:44:11.389Z,3.02
2019-04-22T20:46:36.146Z,2.47
2019-04-22T20:49:05.063Z,2.80
2019-04-22T20:51:48.795Z,2.58
2019-04-22T20:54:07.817Z,2.80
2019-04-22T20:56:34.038Z,3.07
2019-04-22T20:59:09.982Z,2.80
2019-04-22T21:01:41.474Z,3.00
2019-04-22T21:03:56.736Z,2.80
2019-04-22T21:06:36.980Z,2.80
2019-04-22T21:09:14.957Z,3.13
2019-04-22T21:11:40.885Z,3.25
2019-04-22T21:14:06.221Z,2.85
2019-04-22T21:16:43.142Z,3.20
2019-04-22T21:19:21.596Z,3.27
2019-04-22T21:21:46.991Z,3.37
2019-04-22T21:24:09.285Z,2.93
2019-04-22T21:26:45.612Z,2.87
2019-04-22T21:29:12.679Z,3.00
2019-04-22T21:31:45.424Z,2.80
2019-04-22T21:34:16.183Z,2.87
2019-04-22T21:36:48.170Z,2.90
2019-04-22T21:39:12.001Z,2.77
2019-04-22T21:41:47.164Z,3.25
2019-04-22T21:44:18.407Z,2.75
2019-04-22T21:46:57.917Z,2.77
2019-04-22T21:49:25.365Z,2.70
2019-04-22T21:51:55.256Z,2.58
2019-04-22T21:54:36.629Z,3.02
2019-04-22T21:57:11.886Z,2.80
2019-04-22T21:59:29.292Z,3.08
2019-04-22T22:02:05.598Z,2.90
2019-04-22T22:04:25.253Z,2.77
2019-04-22T22:06:50.917Z,3.05
2019-04-22T22:09:34.639Z,2.60
2019-04-22T22:14:27.662Z,3.40
2019-04-22T22:16:51.677Z,3.00
2019-04-22T22:19:36.014Z,2.90
2019-04-22T22:22:06.044Z,2.90
2019-04-22T22:24:33.925Z,3.10
2019-04-22T22:27:01.476Z,3.25
2019-04-22T22:29:49.331Z,3.03
2019-04-22T22:34:36.182Z,3.47
2019-04-22T22:36:58.865Z,3.20
2019-04-22T22:39:27.804Z,3.30
2019-04-22T22:41:44.030Z,3.10
2019-04-22T22:44:21.169Z,3.17
2019-04-22T22:46:58.874Z,3.60
2019-04-22T22:49:33.114Z,2.80
2019-04-22T22:52:31.803Z,3.07
2019-04-22T22:54:37.446Z,3.50
2019-04-22T22:57:12.442Z,3.12
2019-04-22T22:59:33.095Z,3.40
2019-04-22T23:02:04.375Z,3.33
2019-04-22T23:04:41.052Z,3.15
2019-04-22T23:07:12.994Z,3.43
2019-04-22T23:09:38.916Z,3.30
2019-04-22T23:12:12.104Z,3.60
2019-04-22T23:14:37.051Z,3.87
2019-04-22T23:16:55.062Z,3.35
2019-04-22T23:19:17.900Z,3.60
2019-04-22T23:21:51.983Z,3.63
2019-04-22T23:24:48.592Z,3.50
2019-04-22T23:27:26.171Z,3.08
2019-04-22T23:29:54.575Z,3.60
2019-04-22T23:32:25.252Z,3.52
2019-04-22T23:35:08.028Z,3.00
2019-04-22T23:37:39.612Z,3.30
2019-04-22T23:40:16.155Z,3.27
2019-04-22T23:42:44.871Z,3.20
2019-04-22T23:45:14.064Z,3.17
2019-04-22T23:47:35.047Z,3.57
2019-04-22T23:50:14.265Z,3.25
2019-04-22T23:52:49.432Z,3.33
2019-04-22T23:55:17.729Z,3.10
2019-04-22T23:57:46.942Z,3.40
